メインページ
METAR-TAF:

METAR-TAF

空港 :

ウィーン, オーストリア

ウィーン国際空港

緯度: 48-07N, 経度: 016-34E, 海抜: 183m

現時点の気象観測

当レポートは11分前の11:50(UTC)に作成
北西の風 16kt
気温 10°C
湿度 46%
気圧 1020 hPa
視程10km以上
高度3400ftの雲はほとんどない
高度5000ftの千切れ雲あり

METAR: LOWW 231150Z 32016KT 9999 FEW034 BKN050 10/M01 Q1020 NOSIG

時間: 14:01 (12:01 UTC)

予報

当レポートは46分前の11:15(UTC)に作成
予報は23日の 12時(UTC)から 24日の 18時(UTC)まで有効
北西の風 15kt、最大28ktの突風を伴う
視程10km以上
高度4000ftの雲はほとんどない
高度10000ftの雲は散在している
確率 40% :
23日の 12時(UTC)から 23日の 15時(UTC)まで一時的に
北/北西の風 25kt、最大35ktの突風を伴う
高度3000ftの雲はほとんどない, 塔状積雲.
高度3500ftの千切れ雲あり
にわか雨
23日の 1800時(UTC)から
西の風 6kt
視程10km以上
1,500メートル以下は雲なし、積乱雲なし
24日の 07時(UTC)から 24日の 09時(UTC)まで徐々に
南/南東の風 10kt

TAF: LOWW 231115Z 2312/2418 32015G28KT 9999 FEW040 SCT100 TX15/2415Z TN04/2404Z PROB40 TEMPO 2312/2315 34025G35KT SHRA FEW030TCU BKN035 FM231800 28006KT CAVOK BECMG 2407/2409 15010KT

4,000以上の空港の気象観測と天気予報(METAR報とTAF報)

利用可能な観測所は地図上に黄色い丸と赤い丸で示す。

丸の上にカーソルを重ねると観測所名を参照できる。

次にクリックすると気象観測と天気予報を参照できる。

マップの切り替え:黒色「×」印の緑ボタンをクリックして拡大、「-」印の緑ボタンをクリックして縮小、緑色の三角印をクリックして隣りの地図に切り替え


METAR-TAF: